createdAt,value
2023-05-15T00:03:10.110Z,8.52
2023-05-15T00:07:11.846Z,7.18
2023-05-15T00:11:13.318Z,8.40
2023-05-15T00:15:14.784Z,8.13
2023-05-15T00:19:16.513Z,9.05
2023-05-15T00:23:18.375Z,8.90
2023-05-15T00:27:19.832Z,9.38
2023-05-15T00:31:21.308Z,9.05
2023-05-15T00:35:23.530Z,8.65
2023-05-15T00:39:25.090Z,8.77
2023-05-15T00:43:26.935Z,7.70
2023-05-15T00:47:28.969Z,8.95
2023-05-15T00:51:30.575Z,8.25
2023-05-15T00:55:33.890Z,8.45
2023-05-15T00:59:37.477Z,8.68
2023-05-15T01:03:39.862Z,8.73
2023-05-15T01:07:49.473Z,8.05
2023-05-15T01:11:54.425Z,8.10
2023-05-15T01:15:56.187Z,7.93
2023-05-15T01:19:59.252Z,7.97
2023-05-15T01:24:42.826Z,8.52
2023-05-15T01:28:56.364Z,8.80
2023-05-15T01:33:28.295Z,8.82
2023-05-15T01:37:32.870Z,10.07
2023-05-15T01:41:42.913Z,8.77
2023-05-15T01:45:44.684Z,8.85
2023-05-15T01:49:49.795Z,8.93
2023-05-15T01:53:51.985Z,9.25
2023-05-15T01:57:55.518Z,8.55
2023-05-15T02:01:58.379Z,8.88
2023-05-15T02:06:02.236Z,9.75
2023-05-15T02:10:04.631Z,9.35
2023-05-15T02:14:07.256Z,8.85
2023-05-15T02:18:08.738Z,9.60
2023-05-15T02:22:10.639Z,9.88
2023-05-15T02:26:36.448Z,9.80
2023-05-15T02:30:50.046Z,10.55
2023-05-15T02:34:51.476Z,11.55
2023-05-15T02:38:54.071Z,11.55
2023-05-15T02:42:57.030Z,10.27
2023-05-15T02:46:59.530Z,10.43
2023-05-15T02:51:01.211Z,10.93
2023-05-15T02:55:02.932Z,12.05
2023-05-15T02:59:05.115Z,11.82
2023-05-15T03:03:06.564Z,12.52
2023-05-15T03:07:08.054Z,12.50
2023-05-15T03:11:09.445Z,12.27
2023-05-15T03:15:10.935Z,13.32
2023-05-15T03:19:12.502Z,12.07
2023-05-15T03:23:14.043Z,13.85
2023-05-15T03:27:15.648Z,13.23
2023-05-15T03:31:17.081Z,12.70
2023-05-15T03:35:18.566Z,12.77
2023-05-15T03:39:19.992Z,13.40
2023-05-15T03:43:21.448Z,11.98
2023-05-15T03:47:23.194Z,12.07
2023-05-15T03:51:27.505Z,12.80
2023-05-15T03:55:29.102Z,12.30
2023-05-15T03:59:31.267Z,12.80
2023-05-15T04:03:32.737Z,11.85
2023-05-15T04:07:35.279Z,10.82
2023-05-15T04:11:36.691Z,11.75
2023-05-15T04:15:41.012Z,10.75
2023-05-15T04:19:43.191Z,11.77
2023-05-15T04:23:44.657Z,11.20
2023-05-15T04:27:46.752Z,11.90
2023-05-15T04:31:48.259Z,12.43
2023-05-15T04:35:49.737Z,11.50
2023-05-15T04:39:51.228Z,11.88
2023-05-15T04:43:52.817Z,12.50
2023-05-15T04:47:54.428Z,12.02
2023-05-15T04:51:55.911Z,12.77
2023-05-15T04:55:57.457Z,13.20
2023-05-15T05:00:00.236Z,12.65
2023-05-15T05:04:01.697Z,11.23
2023-05-15T05:08:03.258Z,13.02
2023-05-15T05:12:04.940Z,11.77
2023-05-15T05:16:06.741Z,12.48
2023-05-15T05:20:13.065Z,12.02
2023-05-15T05:24:16.279Z,14.32
2023-05-15T05:28:17.753Z,13.88
2023-05-15T05:32:19.390Z,13.48
2023-05-15T05:36:21.118Z,12.27
2023-05-15T05:40:22.611Z,12.63
2023-05-15T05:44:24.471Z,11.27
2023-05-15T05:48:26.797Z,11.88
2023-05-15T05:52:29.322Z,11.40
2023-05-15T05:56:34.753Z,11.77
2023-05-15T06:00:37.772Z,11.07
2023-05-15T06:04:39.258Z,9.35
2023-05-15T06:08:40.923Z,10.05
2023-05-15T06:12:42.704Z,9.43
2023-05-15T06:16:44.270Z,8.82
2023-05-15T06:20:47.347Z,9.73
2023-05-15T06:24:48.967Z,9.27
2023-05-15T06:28:51.968Z,9.88
2023-05-15T06:32:54.280Z,8.82
2023-05-15T06:36:55.733Z,8.95
2023-05-15T06:40:57.248Z,9.15
2023-05-15T06:44:59.480Z,9.73
2023-05-15T06:49:01.207Z,9.60
2023-05-15T06:53:03.236Z,9.93
2023-05-15T06:57:05.545Z,9.02
2023-05-15T07:01:09.031Z,9.75
2023-05-15T07:05:11.474Z,11.23
2023-05-15T07:09:14.697Z,10.85
2023-05-15T07:13:21.632Z,10.23
2023-05-15T07:17:26.501Z,10.25
2023-05-15T07:21:29.459Z,10.63
2023-05-15T07:25:32.003Z,9.77
2023-05-15T07:29:35.899Z,9.90
2023-05-15T07:33:37.430Z,9.57
2023-05-15T07:37:39.519Z,8.73
2023-05-15T07:41:41.009Z,9.18
2023-05-15T07:45:42.699Z,7.35
2023-05-15T07:49:44.623Z,7.10
2023-05-15T07:53:46.216Z,5.97
2023-05-15T07:57:56.203Z,6.00
2023-05-15T08:02:01.607Z,6.40
2023-05-15T08:06:03.354Z,6.43
2023-05-15T08:10:06.388Z,5.43
2023-05-15T08:14:07.969Z,5.43
2023-05-15T08:18:10.514Z,4.88
2023-05-15T08:22:12.228Z,4.72
2023-05-15T08:26:13.759Z,8.55
2023-05-15T08:30:15.427Z,9.88
2023-05-15T08:34:16.943Z,6.35
2023-05-15T08:38:18.593Z,6.43
2023-05-15T08:42:28.194Z,5.60
2023-05-15T08:46:29.929Z,5.95
2023-05-15T08:50:32.712Z,5.35
2023-05-15T08:54:35.223Z,5.18
2023-05-15T08:58:37.121Z,7.50
2023-05-15T09:02:39.564Z,5.30
2023-05-15T09:06:41.560Z,5.63
2023-05-15T09:10:50.726Z,4.45
2023-05-15T09:18:54.359Z,7.63
2023-05-15T09:22:57.064Z,9.35
2023-05-15T09:27:08.914Z,11.10
2023-05-15T09:31:22.906Z,4.30
2023-05-15T09:35:35.889Z,4.88
2023-05-15T09:39:42.870Z,8.00
2023-05-15T09:43:44.371Z,6.50
2023-05-15T09:47:47.062Z,10.77
2023-05-15T09:51:50.642Z,4.10
2023-05-15T09:55:53.527Z,5.22
2023-05-15T09:59:55.036Z,4.95
2023-05-15T10:04:01.272Z,4.40
2023-05-15T10:08:03.712Z,6.93
2023-05-15T10:12:08.197Z,4.13
2023-05-15T10:16:10.265Z,4.50
2023-05-15T10:20:12.376Z,4.25
2023-05-15T10:24:16.363Z,5.47
2023-05-15T10:28:19.476Z,3.83
2023-05-15T10:32:22.252Z,4.03
2023-05-15T10:36:25.253Z,4.18
2023-05-15T10:40:28.836Z,3.50
2023-05-15T10:44:30.398Z,3.88
2023-05-15T10:48:33.404Z,3.72
2023-05-15T10:52:38.937Z,3.80
2023-05-15T10:56:42.260Z,4.20
2023-05-15T11:00:45.329Z,4.35
2023-05-15T11:04:47.641Z,5.13
2023-05-15T11:08:50.529Z,4.07
2023-05-15T11:12:59.662Z,3.95
2023-05-15T11:21:07.403Z,4.05
2023-05-15T11:25:12.534Z,3.40
2023-05-15T11:29:18.643Z,3.45
2023-05-15T11:33:21.026Z,3.78
2023-05-15T11:37:25.257Z,3.45
2023-05-15T11:41:31.822Z,4.20
2023-05-15T11:45:35.822Z,4.38
2023-05-15T11:49:38.576Z,3.13
2023-05-15T11:53:40.748Z,3.35
2023-05-15T11:57:42.151Z,3.40
2023-05-15T12:01:47.273Z,3.58
2023-05-15T12:05:58.200Z,3.83
2023-05-15T12:10:02.193Z,3.85
2023-05-15T12:14:03.823Z,3.92
2023-05-15T12:18:05.992Z,7.50
2023-05-15T12:22:08.378Z,3.03
2023-05-15T12:26:10.003Z,2.75
2023-05-15T12:30:13.683Z,2.00
2023-05-15T12:34:15.200Z,2.38
2023-05-15T12:38:16.789Z,2.10
2023-05-15T12:42:18.225Z,1.83
2023-05-15T12:46:24.425Z,2.00
2023-05-15T12:50:27.268Z,2.30
2023-05-15T12:54:28.990Z,2.08
2023-05-15T12:58:30.618Z,2.78
2023-05-15T13:02:32.249Z,3.30
2023-05-15T13:06:45.844Z,2.97
2023-05-15T13:10:56.981Z,2.20
2023-05-15T13:14:58.482Z,2.00
2023-05-15T13:19:00.011Z,1.83
2023-05-15T13:23:02.715Z,1.80
2023-05-15T13:27:04.906Z,1.90
2023-05-15T13:31:06.439Z,2.08
2023-05-15T13:35:08.663Z,2.80
2023-05-15T13:39:10.430Z,2.00
2023-05-15T13:43:11.925Z,2.03
2023-05-15T13:47:13.441Z,2.40
2023-05-15T13:51:14.913Z,2.53
2023-05-15T13:55:16.393Z,2.00
2023-05-15T13:59:17.851Z,2.70
2023-05-15T14:03:19.391Z,2.50
2023-05-15T14:07:24.133Z,2.00
2023-05-15T14:11:25.609Z,1.67
2023-05-15T14:15:27.063Z,1.50
2023-05-15T14:19:28.544Z,1.67
2023-05-15T14:23:30.018Z,2.30
2023-05-15T14:27:31.684Z,2.63
2023-05-15T14:31:33.188Z,2.08
2023-05-15T14:35:34.622Z,2.15
2023-05-15T14:39:36.156Z,2.08
2023-05-15T14:43:37.698Z,1.77
2023-05-15T14:47:39.519Z,1.70
2023-05-15T14:51:41.355Z,1.95
2023-05-15T14:55:42.811Z,1.88
2023-05-15T14:59:44.218Z,2.00
2023-05-15T15:03:46.011Z,2.00
2023-05-15T15:08:14.154Z,2.60
2023-05-15T15:12:15.659Z,1.98
2023-05-15T15:16:17.166Z,1.70
2023-05-15T15:20:20.008Z,2.05
2023-05-15T15:24:21.441Z,1.73
2023-05-15T15:28:22.892Z,2.20
2023-05-15T15:32:24.505Z,2.25
2023-05-15T15:36:26.153Z,1.58
2023-05-15T15:40:29.705Z,2.05
2023-05-15T15:44:33.723Z,1.85
2023-05-15T15:48:36.001Z,1.70
2023-05-15T15:52:37.498Z,1.83
2023-05-15T15:56:40.223Z,2.20
2023-05-15T16:00:41.770Z,2.58
2023-05-15T16:04:43.327Z,2.85
2023-05-15T16:08:44.827Z,1.92
2023-05-15T16:12:46.309Z,2.42
2023-05-15T16:16:47.820Z,1.77
2023-05-15T16:20:49.360Z,1.75
2023-05-15T16:24:51.044Z,1.65
2023-05-15T16:28:52.489Z,2.05
2023-05-15T16:32:53.984Z,2.05
2023-05-15T16:36:55.473Z,2.00
2023-05-15T16:40:57.040Z,3.20
2023-05-15T16:44:58.483Z,2.28
2023-05-15T16:48:59.912Z,2.85
2023-05-15T16:53:01.433Z,2.00
2023-05-15T16:57:02.899Z,2.00
2023-05-15T17:01:05.234Z,2.00
2023-05-15T17:05:09.120Z,1.77
2023-05-15T17:09:10.593Z,2.60
2023-05-15T17:13:12.023Z,2.30
2023-05-15T17:17:13.897Z,2.40
2023-05-15T17:21:15.306Z,2.20
2023-05-15T17:25:16.790Z,2.88
2023-05-15T17:29:18.452Z,2.80
2023-05-15T17:33:19.915Z,3.05
2023-05-15T17:37:21.334Z,2.72
2023-05-15T17:41:22.774Z,2.95
2023-05-15T17:45:24.620Z,3.03
2023-05-15T17:49:26.729Z,4.45
2023-05-15T17:53:28.138Z,3.42
2023-05-15T17:57:29.613Z,3.42
2023-05-15T18:01:31.117Z,3.83
2023-05-15T18:05:32.600Z,5.95
2023-05-15T18:09:34.066Z,5.70
2023-05-15T18:13:35.477Z,3.30
2023-05-15T18:17:37.036Z,3.10
2023-05-15T18:21:38.636Z,3.03
2023-05-15T18:25:40.074Z,2.78
2023-05-15T18:29:42.513Z,3.95
2023-05-15T18:33:45.321Z,3.15
2023-05-15T18:37:46.806Z,3.47
2023-05-15T18:41:48.343Z,3.20
2023-05-15T18:45:49.822Z,2.97
2023-05-15T18:49:51.290Z,3.10
2023-05-15T18:53:52.870Z,2.95
2023-05-15T18:57:54.291Z,2.97
2023-05-15T19:01:55.917Z,3.17
2023-05-15T19:05:57.830Z,3.00
2023-05-15T19:10:02.171Z,3.30
2023-05-15T19:14:03.602Z,3.22
2023-05-15T19:18:06.003Z,3.67
2023-05-15T19:22:07.461Z,3.75
2023-05-15T19:26:10.787Z,3.53
2023-05-15T19:30:12.471Z,3.13
2023-05-15T19:34:14.023Z,3.38
2023-05-15T19:38:15.548Z,3.35
2023-05-15T19:42:17.453Z,3.75
2023-05-15T19:46:19.224Z,3.45
2023-05-15T19:50:21.058Z,3.67
2023-05-15T19:54:22.494Z,4.82
2023-05-15T19:58:23.914Z,3.92
2023-05-15T20:02:25.491Z,3.78
2023-05-15T20:06:27.132Z,3.78
2023-05-15T20:10:28.608Z,3.45
2023-05-15T20:14:30.803Z,4.65
2023-05-15T20:18:34.734Z,4.43
2023-05-15T20:22:36.866Z,3.78
2023-05-15T20:26:38.525Z,4.20
2023-05-15T20:30:40.219Z,4.55
2023-05-15T20:34:47.559Z,10.90
2023-05-15T20:38:51.771Z,5.63
2023-05-15T20:42:53.243Z,3.70
2023-05-15T20:46:54.644Z,4.88
2023-05-15T20:50:56.217Z,5.43
2023-05-15T20:54:57.724Z,4.68
2023-05-15T20:58:59.944Z,4.13
2023-05-15T21:03:01.696Z,4.50
2023-05-15T21:07:03.842Z,3.95
2023-05-15T21:11:05.429Z,4.03
2023-05-15T21:15:07.624Z,4.03
2023-05-15T21:19:09.224Z,4.18
2023-05-15T21:23:10.923Z,4.10
2023-05-15T21:27:12.417Z,4.22
2023-05-15T21:31:13.967Z,4.53
2023-05-15T21:35:15.854Z,3.63
2023-05-15T21:39:17.241Z,4.00
2023-05-15T21:43:18.826Z,4.57
2023-05-15T21:47:20.372Z,4.55
2023-05-15T21:51:21.940Z,4.35
2023-05-15T21:55:23.435Z,4.05
2023-05-15T21:59:25.845Z,4.82
2023-05-15T22:03:27.561Z,4.30
2023-05-15T22:07:29.151Z,4.45
2023-05-15T22:11:30.592Z,4.20
2023-05-15T22:15:32.015Z,4.28
2023-05-15T22:19:34.165Z,4.53
2023-05-15T22:23:36.170Z,4.63
2023-05-15T22:27:38.027Z,4.95
2023-05-15T22:31:39.508Z,3.97
2023-05-15T22:35:40.977Z,4.60
2023-05-15T22:39:42.983Z,5.18
2023-05-15T22:43:44.490Z,4.70
2023-05-15T22:47:46.071Z,4.60
2023-05-15T22:51:47.645Z,4.95
2023-05-15T22:55:49.262Z,4.55
2023-05-15T22:59:51.429Z,4.88
2023-05-15T23:03:52.908Z,4.82
2023-05-15T23:07:57.415Z,5.07
2023-05-15T23:11:58.828Z,5.68
2023-05-15T23:16:00.387Z,5.43
2023-05-15T23:20:02.424Z,5.70
2023-05-15T23:24:03.944Z,5.72
2023-05-15T23:28:05.483Z,5.97
2023-05-15T23:32:07.306Z,5.82
2023-05-15T23:36:08.951Z,6.00
2023-05-15T23:40:11.098Z,5.90
2023-05-15T23:44:12.781Z,6.00
2023-05-15T23:48:14.274Z,6.75
2023-05-15T23:52:15.728Z,5.55
2023-05-15T23:56:17.200Z,5.90
